createdAt,value
2023-04-22T00:02:13.121Z,10.45
2023-04-22T00:04:41.797Z,10.18
2023-04-22T00:07:08.875Z,10.48
2023-04-22T00:09:36.111Z,13.25
2023-04-22T00:12:03.223Z,10.02
2023-04-22T00:14:29.913Z,10.48
2023-04-22T00:16:57.488Z,10.05
2023-04-22T00:19:24.509Z,10.90
2023-04-22T00:21:51.135Z,9.63
2023-04-22T00:24:17.801Z,9.45
2023-04-22T00:26:44.426Z,9.13
2023-04-22T00:29:11.211Z,9.18
2023-04-22T00:31:37.900Z,8.43
2023-04-22T00:34:04.622Z,9.20
2023-04-22T00:36:31.672Z,8.82
2023-04-22T00:38:58.463Z,8.93
2023-04-22T00:41:25.206Z,8.75
2023-04-22T00:43:53.507Z,13.38
2023-04-22T00:46:20.692Z,9.32
2023-04-22T00:48:47.555Z,9.02
2023-04-22T00:51:14.227Z,11.98
2023-04-22T00:53:40.969Z,8.43
2023-04-22T00:56:07.799Z,9.05
2023-04-22T00:58:34.479Z,10.00
2023-04-22T01:01:01.585Z,9.07
2023-04-22T01:03:30.945Z,9.32
2023-04-22T01:05:58.630Z,9.17
2023-04-22T01:08:31.777Z,11.60
2023-04-22T01:11:00.327Z,8.23
2023-04-22T01:13:28.041Z,10.38
2023-04-22T01:15:56.261Z,11.02
2023-04-22T01:18:23.787Z,10.65
2023-04-22T01:20:51.159Z,8.45
2023-04-22T01:23:23.529Z,9.43
2023-04-22T01:25:51.203Z,8.48
2023-04-22T01:28:18.883Z,9.80
2023-04-22T01:30:46.360Z,10.23
2023-04-22T01:33:16.543Z,9.43
2023-04-22T01:38:13.485Z,8.35
2023-04-22T01:40:41.696Z,8.93
2023-04-22T01:43:09.848Z,8.63
2023-04-22T01:45:37.160Z,10.70
2023-04-22T01:48:04.614Z,10.27
2023-04-22T01:50:32.502Z,11.02
2023-04-22T01:53:00.775Z,10.18
2023-04-22T01:55:28.774Z,10.50
2023-04-22T01:57:56.625Z,11.40
2023-04-22T02:00:24.235Z,9.50
2023-04-22T02:02:51.943Z,10.57
2023-04-22T02:05:19.663Z,11.63
2023-04-22T02:07:47.531Z,9.57
2023-04-22T02:10:18.102Z,12.88
2023-04-22T02:12:46.313Z,9.52
2023-04-22T02:15:15.824Z,11.40
2023-04-22T02:17:43.706Z,8.77
2023-04-22T02:20:12.846Z,8.80
2023-04-22T02:22:42.939Z,11.82
2023-04-22T02:25:12.360Z,9.10
2023-04-22T02:27:40.537Z,10.32
2023-04-22T02:30:09.048Z,12.80
2023-04-22T02:32:40.008Z,13.07
2023-04-22T02:35:08.217Z,14.73
2023-04-22T02:37:36.156Z,15.10
2023-04-22T02:40:05.341Z,13.52
2023-04-22T02:42:33.564Z,16.42
2023-04-22T02:45:03.246Z,11.25
2023-04-22T02:47:31.607Z,11.18
2023-04-22T02:50:00.377Z,11.43
2023-04-22T02:52:29.374Z,12.60
2023-04-22T02:54:57.081Z,12.43
2023-04-22T02:57:24.739Z,13.20
2023-04-22T02:59:52.701Z,12.05
2023-04-22T03:02:21.681Z,14.10
2023-04-22T03:05:08.564Z,12.27
2023-04-22T03:07:36.392Z,11.68
2023-04-22T03:10:04.165Z,11.07
2023-04-22T03:12:32.194Z,11.43
2023-04-22T03:15:00.290Z,11.13
2023-04-22T03:17:32.005Z,10.63
2023-04-22T03:22:30.603Z,10.93
2023-04-22T03:24:59.721Z,13.27
2023-04-22T03:27:29.054Z,12.15
2023-04-22T03:29:57.106Z,13.38
2023-04-22T03:32:24.925Z,11.32
2023-04-22T03:35:05.184Z,9.95
2023-04-22T03:37:33.109Z,13.20
2023-04-22T03:40:02.211Z,14.77
2023-04-22T03:42:31.994Z,14.38
2023-04-22T03:44:59.520Z,12.75
2023-04-22T03:47:30.129Z,12.43
2023-04-22T03:50:03.707Z,9.35
2023-04-22T03:52:34.191Z,9.35
2023-04-22T03:55:03.749Z,12.02
2023-04-22T03:57:35.199Z,9.25
2023-04-22T04:00:02.907Z,9.93
2023-04-22T04:02:32.447Z,12.10
2023-04-22T04:05:02.661Z,10.07
2023-04-22T04:07:30.562Z,11.43
2023-04-22T04:09:58.790Z,14.60
2023-04-22T04:12:26.413Z,12.32
2023-04-22T04:14:54.239Z,14.98
2023-04-22T04:17:25.885Z,14.45
2023-04-22T04:19:54.102Z,13.98
2023-04-22T04:22:23.399Z,13.27
2023-04-22T04:24:57.881Z,11.30
2023-04-22T04:27:32.651Z,10.02
2023-04-22T04:30:01.104Z,12.38
2023-04-22T04:32:43.194Z,9.80
2023-04-22T04:35:14.459Z,11.15
2023-04-22T04:37:47.171Z,10.10
2023-04-22T04:40:15.667Z,9.18
2023-04-22T04:42:50.676Z,12.25
2023-04-22T04:45:22.691Z,12.55
2023-04-22T04:47:50.872Z,11.60
2023-04-22T04:50:24.322Z,12.05
2023-04-22T04:52:52.969Z,13.70
2023-04-22T04:55:29.647Z,12.80
2023-04-22T04:57:58.779Z,11.48
2023-04-22T05:00:26.159Z,10.85
2023-04-22T05:02:53.874Z,10.68
2023-04-22T05:05:21.773Z,11.73
2023-04-22T05:07:49.454Z,9.00
2023-04-22T05:10:18.582Z,11.38
2023-04-22T05:12:48.178Z,10.55
2023-04-22T05:15:20.972Z,13.45
2023-04-22T05:17:48.851Z,11.55
2023-04-22T05:20:16.162Z,18.00
2023-04-22T05:22:45.130Z,19.33
2023-04-22T05:25:14.666Z,17.67
2023-04-22T05:27:51.121Z,11.23
2023-04-22T05:30:20.119Z,13.60
2023-04-22T05:32:48.321Z,11.50
2023-04-22T05:35:16.332Z,13.07
2023-04-22T05:37:44.163Z,15.07
2023-04-22T05:40:12.182Z,11.13
2023-04-22T05:42:40.014Z,9.50
2023-04-22T05:45:08.431Z,7.63
2023-04-22T05:50:08.152Z,6.47
2023-04-22T05:52:47.758Z,9.70
2023-04-22T05:55:18.455Z,8.40
2023-04-22T05:57:46.226Z,8.57
2023-04-22T06:00:36.716Z,6.95
2023-04-22T06:03:19.844Z,13.43
2023-04-22T06:05:47.621Z,7.07
2023-04-22T06:08:15.665Z,7.95
2023-04-22T06:10:43.146Z,9.73
2023-04-22T06:13:11.040Z,7.35
2023-04-22T06:15:39.310Z,7.90
2023-04-22T06:18:07.155Z,9.07
2023-04-22T06:20:36.863Z,7.20
2023-04-22T06:23:05.409Z,6.43
2023-04-22T06:25:33.481Z,8.00
2023-04-22T06:28:00.795Z,7.97
2023-04-22T06:30:29.780Z,10.07
2023-04-22T06:32:57.084Z,7.45
2023-04-22T06:35:26.250Z,10.23
2023-04-22T06:37:56.368Z,8.82
2023-04-22T06:40:28.835Z,7.40
2023-04-22T06:43:16.230Z,5.70
2023-04-22T06:46:06.205Z,8.43
2023-04-22T06:49:00.056Z,6.13
2023-04-22T06:51:46.014Z,5.50
2023-04-22T06:54:14.078Z,5.90
2023-04-22T06:56:42.073Z,6.95
2023-04-22T06:59:10.100Z,5.57
2023-04-22T07:01:37.557Z,6.22
2023-04-22T07:04:05.285Z,6.78
2023-04-22T07:06:33.207Z,5.22
2023-04-22T07:09:01.203Z,5.72
2023-04-22T07:11:28.521Z,6.80
2023-04-22T07:14:04.049Z,6.50
2023-04-22T07:16:31.930Z,4.53
2023-04-22T07:18:59.520Z,4.00
2023-04-22T07:21:27.010Z,3.70
2023-04-22T07:23:54.434Z,2.83
2023-04-22T07:26:21.972Z,1.92
2023-04-22T07:28:49.338Z,2.97
2023-04-22T07:31:16.802Z,3.53
2023-04-22T07:33:44.450Z,2.65
2023-04-22T07:36:11.996Z,2.10
2023-04-22T07:38:40.850Z,1.40
2023-04-22T07:41:08.118Z,1.67
2023-04-22T07:43:35.123Z,2.78
2023-04-22T07:46:02.540Z,3.17
2023-04-22T07:48:31.227Z,2.63
2023-04-22T07:50:58.185Z,2.00
2023-04-22T07:53:25.261Z,2.88
2023-04-22T07:55:52.379Z,2.28
2023-04-22T07:58:19.855Z,1.83
2023-04-22T08:00:46.993Z,3.75
2023-04-22T08:03:15.038Z,2.47
2023-04-22T08:05:42.111Z,2.85
2023-04-22T08:08:09.777Z,3.80
2023-04-22T08:10:37.021Z,2.35
2023-04-22T08:13:04.354Z,2.72
2023-04-22T08:15:31.696Z,2.70
2023-04-22T08:17:59.786Z,2.28
2023-04-22T08:20:27.028Z,2.75
2023-04-22T08:22:58.319Z,3.05
2023-04-22T08:25:25.820Z,4.65
2023-04-22T08:27:53.772Z,2.83
2023-04-22T08:30:21.462Z,2.83
2023-04-22T08:32:48.800Z,3.40
2023-04-22T08:35:16.091Z,1.40
2023-04-22T08:37:43.804Z,2.20
2023-04-22T08:40:11.316Z,1.98
2023-04-22T08:42:38.664Z,1.88
2023-04-22T08:45:07.089Z,1.60
2023-04-22T08:47:35.466Z,5.70
2023-04-22T08:50:04.519Z,3.03
2023-04-22T08:52:31.626Z,5.25
2023-04-22T08:54:59.180Z,8.05
2023-04-22T08:57:26.744Z,2.28
2023-04-22T08:59:55.767Z,2.60
2023-04-22T09:02:24.888Z,2.58
2023-04-22T09:04:55.919Z,4.07
2023-04-22T09:07:28.369Z,4.80
2023-04-22T09:09:56.212Z,3.10
2023-04-22T09:12:23.869Z,2.90
2023-04-22T09:14:52.370Z,3.20
2023-04-22T09:17:31.043Z,3.03
2023-04-22T09:20:00.225Z,2.38
2023-04-22T09:22:30.241Z,2.67
2023-04-22T09:24:57.818Z,2.70
2023-04-22T09:27:26.235Z,2.10
2023-04-22T09:29:53.626Z,4.32
2023-04-22T09:32:20.943Z,4.85
2023-04-22T09:34:53.315Z,2.83
2023-04-22T09:37:23.942Z,3.28
2023-04-22T09:39:51.877Z,2.53
2023-04-22T09:42:20.148Z,4.38
2023-04-22T09:44:54.958Z,2.80
2023-04-22T09:47:23.773Z,4.65
2023-04-22T09:49:51.494Z,2.58
2023-04-22T09:52:25.105Z,4.00
2023-04-22T09:54:52.812Z,3.70
2023-04-22T09:57:21.328Z,4.75
2023-04-22T09:59:52.074Z,2.42
2023-04-22T10:02:19.432Z,2.65
2023-04-22T10:04:47.962Z,2.25
2023-04-22T10:07:15.841Z,2.45
2023-04-22T10:09:43.322Z,1.67
2023-04-22T10:12:11.540Z,2.85
2023-04-22T10:14:39.156Z,4.68
2023-04-22T10:17:06.929Z,3.03
2023-04-22T10:19:35.377Z,1.95
2023-04-22T10:22:04.356Z,2.30
2023-04-22T10:27:10.822Z,2.72
2023-04-22T10:29:40.211Z,2.90
2023-04-22T10:32:25.411Z,2.55
2023-04-22T10:35:08.819Z,2.05
2023-04-22T10:37:37.088Z,1.70
2023-04-22T10:40:11.211Z,3.42
2023-04-22T10:42:42.319Z,3.33
2023-04-22T10:45:14.070Z,4.90
2023-04-22T10:47:42.240Z,2.50
2023-04-22T10:50:13.613Z,3.60
2023-04-22T10:52:41.826Z,2.97
2023-04-22T10:55:09.018Z,3.38
2023-04-22T10:57:42.020Z,3.97
2023-04-22T11:00:21.076Z,1.77
2023-04-22T11:02:53.321Z,5.20
2023-04-22T11:05:27.422Z,5.47
2023-04-22T11:07:56.871Z,5.28
2023-04-22T11:10:34.586Z,9.13
2023-04-22T11:13:02.910Z,6.00
2023-04-22T11:15:31.538Z,3.80
2023-04-22T11:17:59.054Z,3.15
2023-04-22T11:20:26.324Z,3.60
2023-04-22T11:22:57.180Z,2.85
2023-04-22T11:25:24.931Z,3.95
2023-04-22T11:27:54.428Z,3.88
2023-04-22T11:30:23.101Z,2.70
2023-04-22T11:32:51.270Z,3.67
2023-04-22T11:35:20.785Z,5.80
2023-04-22T11:38:09.316Z,1.67
2023-04-22T11:40:40.824Z,3.70
2023-04-22T11:43:11.302Z,1.88
2023-04-22T11:45:39.429Z,2.20
2023-04-22T11:48:07.850Z,5.85
2023-04-22T11:50:36.754Z,4.45
2023-04-22T11:53:16.774Z,4.75
2023-04-22T11:55:45.794Z,2.75
2023-04-22T11:58:15.652Z,2.08
2023-04-22T12:00:44.285Z,4.97
2023-04-22T12:03:17.292Z,3.03
2023-04-22T12:06:01.960Z,3.33
2023-04-22T12:08:37.849Z,3.60
2023-04-22T12:11:07.789Z,5.38
2023-04-22T12:13:46.395Z,3.40
2023-04-22T12:16:20.168Z,3.65
2023-04-22T12:18:52.214Z,2.72
2023-04-22T12:21:21.635Z,3.33
2023-04-22T12:23:55.617Z,2.03
2023-04-22T12:26:29.885Z,5.32
2023-04-22T12:28:58.514Z,2.90
2023-04-22T12:31:26.144Z,5.55
2023-04-22T12:33:54.155Z,3.65
2023-04-22T12:36:21.444Z,4.40
2023-04-22T12:38:48.681Z,4.10
2023-04-22T12:41:16.629Z,5.40
2023-04-22T12:43:43.954Z,2.58
2023-04-22T12:46:11.767Z,1.98
2023-04-22T12:48:38.894Z,4.50
2023-04-22T12:51:07.255Z,4.00
2023-04-22T12:53:34.348Z,4.85
2023-04-22T12:56:01.447Z,3.38
2023-04-22T12:58:28.500Z,3.90
2023-04-22T13:00:56.152Z,3.47
2023-04-22T13:03:23.741Z,2.45
2023-04-22T13:05:52.858Z,2.08
2023-04-22T13:08:20.598Z,6.18
2023-04-22T13:10:48.635Z,4.32
2023-04-22T13:13:18.853Z,2.47
2023-04-22T13:15:54.407Z,3.05
2023-04-22T13:18:23.576Z,2.10
2023-04-22T13:20:51.406Z,2.33
2023-04-22T13:23:22.114Z,2.95
2023-04-22T13:25:50.273Z,3.63
2023-04-22T13:28:17.881Z,1.58
2023-04-22T13:30:45.283Z,3.40
2023-04-22T13:33:13.489Z,4.03
2023-04-22T13:35:40.848Z,5.00
2023-04-22T13:38:08.576Z,4.82
2023-04-22T13:40:36.963Z,3.50
2023-04-22T13:43:04.509Z,3.05
2023-04-22T13:45:31.950Z,2.80
2023-04-22T13:47:59.384Z,3.63
2023-04-22T13:50:26.868Z,6.70
2023-04-22T13:52:54.373Z,2.70
2023-04-22T13:55:21.733Z,3.13
2023-04-22T13:57:51.035Z,1.60
2023-04-22T14:00:19.010Z,2.60
2023-04-22T14:02:46.745Z,2.83
2023-04-22T14:05:14.674Z,4.45
2023-04-22T14:07:41.953Z,5.85
2023-04-22T14:10:12.271Z,3.15
2023-04-22T14:12:40.113Z,5.30
2023-04-22T14:15:10.809Z,4.13
2023-04-22T14:17:39.123Z,2.70
2023-04-22T14:20:07.547Z,5.80
2023-04-22T14:22:34.601Z,3.58
2023-04-22T14:25:02.080Z,3.72
2023-04-22T14:27:29.678Z,3.90
2023-04-22T14:29:59.471Z,3.50
2023-04-22T14:32:27.276Z,4.55
2023-04-22T14:34:55.109Z,2.17
2023-04-22T14:37:23.895Z,3.38
2023-04-22T14:39:50.885Z,4.72
2023-04-22T14:42:19.579Z,3.13
2023-04-22T14:44:46.881Z,4.75
2023-04-22T14:47:14.011Z,4.43
2023-04-22T14:49:42.238Z,3.00
2023-04-22T14:52:09.515Z,4.70
2023-04-22T14:54:36.688Z,4.57
2023-04-22T14:57:04.307Z,4.05
2023-04-22T14:59:31.224Z,2.58
2023-04-22T15:01:58.337Z,2.30
2023-04-22T15:04:25.845Z,4.63
2023-04-22T15:06:57.485Z,1.90
2023-04-22T15:09:24.837Z,4.20
2023-04-22T15:11:54.254Z,4.30
2023-04-22T15:14:21.179Z,2.25
2023-04-22T15:16:48.490Z,3.50
2023-04-22T15:19:16.049Z,3.22
2023-04-22T15:21:43.158Z,4.22
2023-04-22T15:24:11.321Z,5.22
2023-04-22T15:26:39.689Z,3.63
2023-04-22T15:29:07.488Z,4.53
2023-04-22T15:31:34.558Z,5.13
2023-04-22T15:34:01.509Z,6.07
2023-04-22T15:36:30.112Z,3.50
2023-04-22T15:38:57.702Z,2.85
2023-04-22T15:41:26.397Z,3.35
2023-04-22T15:43:53.564Z,5.93
2023-04-22T15:46:21.549Z,2.97
2023-04-22T15:48:49.164Z,5.63
2023-04-22T15:51:17.829Z,5.63
2023-04-22T15:53:46.213Z,3.72
2023-04-22T15:56:13.541Z,1.92
2023-04-22T15:58:41.254Z,2.33
2023-04-22T16:01:18.994Z,3.55
2023-04-22T16:03:48.742Z,3.53
2023-04-22T16:06:16.795Z,3.67
2023-04-22T16:08:45.362Z,5.90
2023-04-22T16:11:14.675Z,5.43
2023-04-22T16:13:42.761Z,4.68
2023-04-22T16:16:09.989Z,3.75
2023-04-22T16:18:38.152Z,3.75
2023-04-22T16:21:05.381Z,3.55
2023-04-22T16:23:33.554Z,6.13
2023-04-22T16:26:03.030Z,3.80
2023-04-22T16:28:30.283Z,5.63
2023-04-22T16:30:57.506Z,2.85
2023-04-22T16:33:25.273Z,3.67
2023-04-22T16:35:52.496Z,5.22
2023-04-22T16:38:19.897Z,7.63
2023-04-22T16:40:47.153Z,4.53
2023-04-22T16:43:14.506Z,9.00
2023-04-22T16:45:42.120Z,5.00
2023-04-22T16:48:10.893Z,5.47
2023-04-22T16:50:41.415Z,4.25
2023-04-22T16:53:10.182Z,4.60
2023-04-22T16:55:37.237Z,4.20
2023-04-22T16:58:05.424Z,3.13
2023-04-22T17:00:32.391Z,4.72
2023-04-22T17:03:00.995Z,5.70
2023-04-22T17:05:28.257Z,3.33
2023-04-22T17:07:55.974Z,6.00
2023-04-22T17:10:23.832Z,3.78
2023-04-22T17:12:53.164Z,6.68
2023-04-22T17:15:20.877Z,6.07
2023-04-22T17:17:49.315Z,4.05
2023-04-22T17:20:16.915Z,7.47
2023-04-22T17:22:43.901Z,4.70
2023-04-22T17:25:11.069Z,6.18
2023-04-22T17:27:39.523Z,7.18
2023-04-22T17:30:07.997Z,7.90
2023-04-22T17:32:35.348Z,6.45
2023-04-22T17:35:03.014Z,5.55
2023-04-22T17:37:30.253Z,6.35
2023-04-22T17:39:57.880Z,4.35
2023-04-22T17:42:32.168Z,6.07
2023-04-22T17:45:06.946Z,7.65
2023-04-22T17:47:34.008Z,5.53
2023-04-22T17:50:01.137Z,7.68
2023-04-22T17:52:28.689Z,9.43
2023-04-22T17:54:57.769Z,6.78
2023-04-22T17:57:25.872Z,4.93
2023-04-22T17:59:53.051Z,5.15
2023-04-22T18:02:22.085Z,8.75
2023-04-22T18:04:49.792Z,6.03
2023-04-22T18:07:17.164Z,7.55
2023-04-22T18:09:44.285Z,8.25
2023-04-22T18:12:11.406Z,5.60
2023-04-22T18:14:38.581Z,5.22
2023-04-22T18:17:05.739Z,6.47
2023-04-22T18:19:33.194Z,7.15
2023-04-22T18:22:00.981Z,4.78
2023-04-22T18:24:28.528Z,6.65
2023-04-22T18:26:55.535Z,8.00
2023-04-22T18:29:22.542Z,5.68
2023-04-22T18:31:50.279Z,8.65
2023-04-22T18:34:17.645Z,8.45
2023-04-22T18:36:45.041Z,6.25
2023-04-22T18:39:12.469Z,6.32
2023-04-22T18:41:40.090Z,9.63
2023-04-22T18:44:07.692Z,6.70
2023-04-22T18:46:34.862Z,8.38
2023-04-22T18:49:02.385Z,6.53
2023-04-22T18:51:30.438Z,7.60
2023-04-22T18:53:57.755Z,8.10
2023-04-22T18:56:25.191Z,7.93
2023-04-22T18:58:52.311Z,5.10
2023-04-22T19:01:19.623Z,10.52
2023-04-22T19:03:46.910Z,7.35
2023-04-22T19:06:14.210Z,8.25
2023-04-22T19:08:41.564Z,6.68
2023-04-22T19:11:08.821Z,6.00
2023-04-22T19:13:35.866Z,7.88
2023-04-22T19:16:03.296Z,6.63
2023-04-22T19:18:30.758Z,6.97
2023-04-22T19:20:57.932Z,6.00
2023-04-22T19:23:25.021Z,7.10
2023-04-22T19:25:52.116Z,7.68
2023-04-22T19:28:19.236Z,6.68
2023-04-22T19:30:46.739Z,9.13
2023-04-22T19:33:15.020Z,6.35
2023-04-22T19:35:42.720Z,7.07
2023-04-22T19:38:11.295Z,9.50
2023-04-22T19:40:38.763Z,7.88
2023-04-22T19:43:05.878Z,6.68
2023-04-22T19:45:33.003Z,6.53
2023-04-22T19:48:00.307Z,7.18
2023-04-22T19:50:28.169Z,8.18
2023-04-22T19:53:04.460Z,6.82
2023-04-22T19:55:32.929Z,7.53
2023-04-22T19:57:59.954Z,7.60
2023-04-22T20:00:28.028Z,6.35
2023-04-22T20:02:55.359Z,11.55
2023-04-22T20:05:22.702Z,8.43
2023-04-22T20:07:50.517Z,8.13
2023-04-22T20:10:18.281Z,6.53
2023-04-22T20:12:46.949Z,8.48
2023-04-22T20:15:14.086Z,8.18
2023-04-22T20:17:41.238Z,9.20
2023-04-22T20:20:17.570Z,9.02
2023-04-22T20:22:46.039Z,10.10
2023-04-22T20:25:15.008Z,7.93
2023-04-22T20:27:42.617Z,6.75
2023-04-22T20:30:11.379Z,7.68
2023-04-22T20:32:38.468Z,7.30
2023-04-22T20:35:06.856Z,7.45
2023-04-22T20:37:36.108Z,8.48
2023-04-22T20:40:05.498Z,7.93
2023-04-22T20:42:33.151Z,10.10
2023-04-22T20:45:01.633Z,8.57
2023-04-22T20:47:29.252Z,9.43
2023-04-22T20:49:56.544Z,9.48
2023-04-22T20:52:23.635Z,8.55
2023-04-22T20:54:55.240Z,8.35
2023-04-22T20:57:22.197Z,8.45
2023-04-22T20:59:49.454Z,10.27
2023-04-22T21:02:18.719Z,10.65
2023-04-22T21:04:46.599Z,12.38
2023-04-22T21:07:15.831Z,12.73
2023-04-22T21:09:43.293Z,10.00
2023-04-22T21:12:11.305Z,11.95
2023-04-22T21:14:41.698Z,10.38
2023-04-22T21:17:18.586Z,9.95
2023-04-22T21:19:48.128Z,11.90
2023-04-22T21:22:18.792Z,10.23
2023-04-22T21:24:50.988Z,10.60
2023-04-22T21:27:19.780Z,8.73
2023-04-22T21:29:48.751Z,10.10
2023-04-22T21:32:17.579Z,11.48
2023-04-22T21:34:45.330Z,9.07
2023-04-22T21:37:13.412Z,9.10
2023-04-22T21:39:40.918Z,11.93
2023-04-22T21:42:08.993Z,10.55
2023-04-22T21:44:37.584Z,11.73
2023-04-22T21:47:05.964Z,11.13
2023-04-22T21:49:33.368Z,9.30
2023-04-22T21:52:00.508Z,10.35
2023-04-22T21:54:27.832Z,12.05
2023-04-22T21:56:55.526Z,9.48
2023-04-22T21:59:24.751Z,12.73
2023-04-22T22:01:51.910Z,10.52
2023-04-22T22:04:19.914Z,13.57
2023-04-22T22:06:47.078Z,12.57
2023-04-22T22:09:14.267Z,11.68
2023-04-22T22:11:42.055Z,10.48
2023-04-22T22:14:09.380Z,11.80
2023-04-22T22:16:38.459Z,13.98
2023-04-22T22:19:05.604Z,11.73
2023-04-22T22:21:33.376Z,12.02
2023-04-22T22:24:00.466Z,11.80
2023-04-22T22:26:28.105Z,12.20
2023-04-22T22:28:56.249Z,10.88
2023-04-22T22:31:23.514Z,10.98
2023-04-22T22:33:54.034Z,12.05
2023-04-22T22:38:48.222Z,13.43
2023-04-22T22:41:15.323Z,13.13
2023-04-22T22:43:42.527Z,14.02
2023-04-22T22:46:10.256Z,10.98
2023-04-22T22:48:37.273Z,14.43
2023-04-22T22:51:04.628Z,13.32
2023-04-22T22:53:34.328Z,12.13
2023-04-22T22:56:01.333Z,12.32
2023-04-22T22:58:28.522Z,12.68
2023-04-22T23:00:56.325Z,13.48
2023-04-22T23:03:23.351Z,15.55
2023-04-22T23:05:50.423Z,17.92
2023-04-22T23:08:17.936Z,18.23
2023-04-22T23:10:45.425Z,16.05
2023-04-22T23:13:12.570Z,13.75
2023-04-22T23:15:39.692Z,15.75
2023-04-22T23:18:09.325Z,16.33
2023-04-22T23:20:37.617Z,13.90
2023-04-22T23:23:05.168Z,15.65
2023-04-22T23:25:32.881Z,14.73
2023-04-22T23:28:00.852Z,17.40
2023-04-22T23:30:28.510Z,15.80
2023-04-22T23:32:57.694Z,15.57
2023-04-22T23:35:27.665Z,15.63
2023-04-22T23:37:55.436Z,14.55
2023-04-22T23:40:22.492Z,15.07
2023-04-22T23:42:49.484Z,15.60
2023-04-22T23:45:17.954Z,15.43
2023-04-22T23:47:45.142Z,15.48
2023-04-22T23:50:14.187Z,17.30
2023-04-22T23:52:42.779Z,16.15
2023-04-22T23:55:14.088Z,17.40
2023-04-22T23:57:41.599Z,15.85
